Time;durP1;ratioP1;P1;durP2;ratioP2;P2;SDS_P1;SDS_P2;PMS_P1;PMS_P2;Temp;Humidity;BMP_temperature;BMP_pressure;BME280_temperature;BME280_humidity;BME280_pressure;Samples;Min_cycle;Max_cycle;Signal;HPM_P1;HPM_P2
2022/11/19 00:02:09;;;;;;;;;4.00;4.00;;;;;6.06;81.54;99034.53;5117073;28;8842;-58
2022/11/19 00:04:37;;;;;;;;;3.00;3.00;;;;;6.05;81.64;99038.09;5098816;28;8845;-58
2022/11/19 00:07:04;;;;;;;;;3.60;3.60;;;;;6.03;81.78;99038.25;5098740;28;8825;-57
2022/11/19 00:09:35;;;;;;;;;6.40;4.00;;;;;6.01;81.56;99047.22;5098903;28;8834;-59
2022/11/19 00:14:48;;;;;;;;;6.00;4.80;;;;;5.93;81.33;99049.63;5098978;28;8826;-58
2022/11/19 00:17:16;;;;;;;;;7.40;6.60;;;;;5.92;81.07;99042.66;5098079;28;8822;-58
2022/11/19 00:19:46;;;;;;;;;3.60;3.00;;;;;5.90;81.52;99042.75;5098062;28;8849;-57
2022/11/19 00:22:14;;;;;;;;;4.00;3.40;;;;;5.88;81.50;99044.69;5098878;28;8845;-56
2022/11/19 00:24:42;;;;;;;;;3.00;3.00;;;;;5.86;81.68;99057.13;5115945;28;8835;-58
2022/11/19 00:27:09;;;;;;;;;3.20;3.20;;;;;5.86;80.91;99043.09;5117468;28;8868;-58
2022/11/19 00:29:38;;;;;;;;;6.40;6.00;;;;;5.84;81.17;99060.88;5097538;28;8803;-59
2022/11/19 00:32:07;;;;;;;;;4.00;4.00;;;;;5.81;81.34;99061.94;5097964;28;8802;-59
2022/11/19 00:34:35;;;;;;;;;4.80;3.80;;;;;5.81;80.99;99061.94;5098513;28;8826;-59
2022/11/19 00:37:03;;;;;;;;;6.20;6.00;;;;;5.83;81.24;99054.72;5098014;28;8837;-58
2022/11/19 00:39:31;;;;;;;;;7.00;6.60;;;;;5.85;81.17;99057.28;5098187;28;8855;-59
2022/11/19 00:41:58;;;;;;;;;1.00;1.00;;;;;5.84;81.15;99051.13;5098038;28;8830;-59
2022/11/19 00:44:26;;;;;;;;;4.20;4.20;;;;;5.83;81.06;99052.09;5097481;28;8841;-59
2022/11/19 00:47:02;;;;;;;;;6.60;6.00;;;;;5.79;81.11;99063.84;5111420;28;8824;-59
2022/11/19 00:49:29;;;;;;;;;0.60;0.60;;;;;5.78;81.27;99063.94;5118100;28;8855;-59
2022/11/19 00:51:57;;;;;;;;;4.00;4.00;;;;;5.77;81.35;99062.25;5118281;28;8848;-59
2022/11/19 00:54:25;;;;;;;;;1.80;1.80;;;;;5.75;80.85;99059.72;5118178;28;8940;-59
2022/11/19 00:56:52;;;;;;;;;4.00;2.60;;;;;5.73;80.96;99069.56;5118145;28;8816;-58
2022/11/19 00:59:20;;;;;;;;;3.20;2.20;;;;;5.73;81.08;99068.69;5098515;28;8828;-59
2022/11/19 01:01:48;;;;;;;;;3.60;3.60;;;;;5.70;80.73;99071.59;5097587;28;8818;-59
2022/11/19 01:04:16;;;;;;;;;3.00;2.60;;;;;5.66;81.05;99070.97;5097463;28;8838;-59
2022/11/19 01:06:43;;;;;;;;;6.60;4.00;;;;;5.64;81.23;99079.94;5097679;28;8838;-58
2022/11/19 01:09:11;;;;;;;;;9.40;6.40;;;;;5.63;80.96;99078.25;5097398;28;8818;-58
2022/11/19 01:11:39;;;;;;;;;3.00;3.00;;;;;5.60;81.09;99078.47;5097755;28;8810;-59
2022/11/19 01:14:07;;;;;;;;;3.20;3.20;;;;;5.57;80.91;99086.63;5097638;28;8841;-58
2022/11/19 01:16:35;;;;;;;;;1.80;1.00;;;;;5.54;80.66;99081.59;5097879;28;8822;-57
2022/11/19 01:19:02;;;;;;;;;8.20;6.60;;;;;5.53;80.86;99090.47;5097308;28;8834;-58
2022/11/19 01:21:30;;;;;;;;;4.80;4.00;;;;;5.50;80.78;99088.88;5097565;28;8926;-59
2022/11/19 01:23:58;;;;;;;;;5.20;5.20;;;;;5.47;80.79;99093.53;5108611;28;8811;-59
2022/11/19 01:26:26;;;;;;;;;4.00;4.00;;;;;5.46;81.22;99086.59;5117062;28;8850;-59
2022/11/19 01:28:53;;;;;;;;;8.40;7.60;;;;;5.45;81.22;99096.28;5101376;28;8834;-59
2022/11/19 01:31:21;;;;;;;;;4.40;4.00;;;;;5.46;80.81;99089.22;5096346;28;8836;-58
2022/11/19 01:33:53;;;;;;;;;4.00;4.00;;;;;5.47;80.63;99093.53;5096499;28;9519;-59
2022/11/19 01:36:21;;;;;;;;;5.20;5.20;;;;;5.48;80.64;99100.50;5095187;28;8845;-59
2022/11/19 01:38:50;;;;;;;;;3.00;3.00;;;;;5.47;80.45;99098.81;5096052;28;8810;-59
2022/11/19 01:41:18;;;;;;;;;3.60;3.20;;;;;5.46;80.86;99089.22;5096094;28;8834;-58
2022/11/19 01:43:46;;;;;;;;;6.20;3.80;;;;;5.47;80.56;99093.53;5095848;28;8841;-58
2022/11/19 01:46:13;;;;;;;;;5.20;4.20;;;;;5.47;80.83;99083.00;5096288;28;8946;-58
2022/11/19 01:48:41;;;;;;;;;6.00;3.80;;;;;5.44;80.46;99093.75;5096235;28;8830;-59
2022/11/19 01:51:09;;;;;;;;;8.40;8.40;;;;;5.41;80.21;99094.81;5095982;28;8837;-59
2022/11/19 01:53:36;;;;;;;;;11.00;10.20;;;;;5.37;80.41;99085.44;5104298;28;8816;-59
2022/11/19 01:56:04;;;;;;;;;6.00;5.60;;;;;5.34;80.80;99093.59;5115885;28;8844;-59
2022/11/19 01:58:32;;;;;;;;;7.00;7.00;;;;;5.35;81.02;99091.78;5104951;28;8826;-59
2022/11/19 02:01:00;;;;;;;;;6.00;5.20;;;;;5.34;80.59;99092.75;5096549;28;8822;-58
2022/11/19 02:03:27;;;;;;;;;5.60;5.60;;;;;5.35;80.33;99100.56;5096736;28;8902;-59
2022/11/19 02:05:55;;;;;;;;;5.20;4.00;;;;;5.33;80.73;99104.25;5096245;28;8895;-59
2022/11/19 02:08:23;;;;;;;;;9.00;6.20;;;;;5.29;80.60;99101.00;5096626;28;8825;-58
2022/11/19 02:10:50;;;;;;;;;12.00;9.40;;;;;5.25;80.35;99104.78;5096561;28;8838;-58
2022/11/19 02:13:18;;;;;;;;;6.20;5.20;;;;;5.22;80.20;99112.06;5096630;28;8844;-59
2022/11/19 02:15:46;;;;;;;;;8.60;6.60;;;;;5.20;80.52;99111.34;5095853;28;9518;-59
2022/11/19 02:18:16;;;;;;;;;8.60;7.40;;;;;5.22;80.24;99114.72;5096410;28;8861;-58
2022/11/19 02:20:43;;;;;;;;;8.40;7.00;;;;;5.19;80.33;99126.34;5096038;28;8866;-58
2022/11/19 02:23:11;;;;;;;;;7.00;6.20;;;;;5.16;80.25;99123.91;5100611;28;8812;-59
2022/11/19 02:25:39;;;;;;;;;9.80;8.60;;;;;5.14;80.63;99131.09;5116724;28;9472;-59
2022/11/19 02:28:06;;;;;;;;;3.00;3.00;;;;;5.15;80.69;99129.28;5108665;28;8810;-59
2022/11/19 02:30:34;;;;;;;;;6.60;6.20;;;;;5.15;80.81;99129.28;5096114;28;8810;-57
2022/11/19 02:33:02;;;;;;;;;3.00;3.00;;;;;5.14;80.73;99127.59;5095938;28;8842;-59
2022/11/19 02:35:31;;;;;;;;;7.80;7.40;;;;;5.12;80.11;99129.53;5095780;28;8822;-56
2022/11/19 02:37:59;;;;;;;;;7.40;7.20;;;;;5.10;80.72;99132.25;5095992;28;8826;-58
2022/11/19 02:40:27;;;;;;;;;8.40;7.80;;;;;5.14;80.44;99132.88;5096059;28;8838;-59
2022/11/19 02:42:54;;;;;;;;;6.40;6.40;;;;;5.14;79.91;99132.88;5095981;28;9600;-58
2022/11/19 02:45:22;;;;;;;;;7.00;5.80;;;;;5.17;80.47;99130.06;5096046;28;8895;-59
2022/11/19 02:47:49;;;;;;;;;8.20;7.00;;;;;5.16;79.78;99126.56;5096036;28;8845;-59
2022/11/19 02:50:17;;;;;;;;;8.20;7.80;;;;;5.18;79.88;99123.81;5095909;28;8842;-56
2022/11/19 02:52:45;;;;;;;;;9.00;8.60;;;;;5.19;79.83;99122.88;5097061;28;8931;-58
2022/11/19 02:55:12;;;;;;;;;7.40;7.00;;;;;5.20;79.66;99121.91;5116918;28;9484;-58
2022/11/19 02:57:40;;;;;;;;;4.00;4.00;;;;;5.21;80.34;99128.88;5112554;28;8782;-59
2022/11/19 03:05:37;;;;;;;;;8.20;7.80;;;;;5.21;79.80;99131.50;5095730;28;8829;-59
2022/11/19 03:08:05;;;;;;;;;8.60;6.80;;;;;5.21;80.13;99126.22;5097838;28;8927;-58
2022/11/19 03:10:33;;;;;;;;;6.00;6.00;;;;;5.23;79.79;99125.16;5100469;28;9539;-59
2022/11/19 03:16:40;;;;;;;;;10.40;10.00;;;;;5.25;80.12;99125.91;5100239;28;8845;-57
2022/11/19 03:18:33;;;;;;;;;7.00;6.00;;;;;5.27;79.39;99126.66;5099957;28;8830;-59
2022/11/19 03:21:01;;;;;;;;;10.80;8.60;;;;;5.28;79.49;99130.13;5099908;28;8845;-59
2022/11/19 03:23:29;;;;;;;;;10.20;8.20;;;;;5.29;79.18;99126.53;5106389;28;8834;-59
2022/11/19 03:25:57;;;;;;;;;6.80;5.60;;;;;5.29;79.50;99132.66;5119848;28;8840;-59
2022/11/19 03:28:24;;;;;;;;;10.40;10.40;;;;;5.29;79.41;99134.44;5110260;28;8814;-58
2022/11/19 03:30:52;;;;;;;;;7.40;5.20;;;;;5.27;79.27;99139.84;5100053;28;8825;-59
2022/11/19 03:33:20;;;;;;;;;9.00;7.80;;;;;5.25;79.79;99135.63;5099926;28;8806;-59
2022/11/19 03:35:47;;;;;;;;;10.80;9.40;;;;;5.23;79.84;99140.19;5099978;28;8825;-59
2022/11/19 03:38:15;;;;;;;;;7.80;7.00;;;;;5.19;79.27;99133.41;5099760;28;8822;-59
2022/11/19 03:40:42;;;;;;;;;9.40;8.20;;;;;5.17;79.77;99135.31;5099456;28;8826;-59
2022/11/19 03:43:15;;;;;;;;;6.80;4.80;;;;;5.15;79.37;99134.56;5099751;28;8861;-59
2022/11/19 03:45:42;;;;;;;;;9.60;7.00;;;;;5.10;79.90;99132.25;5099881;28;8907;-59
2022/11/19 03:48:10;;;;;;;;;10.80;9.80;;;;;5.09;79.25;99137.66;5099460;28;8829;-59
2022/11/19 03:50:38;;;;;;;;;13.60;10.20;;;;;5.06;79.43;99146.63;5099541;28;8834;-59
2022/11/19 03:53:05;;;;;;;;;7.00;6.60;;;;;5.05;79.25;99138.81;5103051;28;8844;-59
2022/11/19 03:55:33;;;;;;;;;6.60;5.60;;;;;5.06;79.90;99148.41;5119817;28;8823;-59
2022/11/19 03:58:01;;;;;;;;;13.00;9.40;;;;;5.03;79.34;99146.84;5113308;28;8830;-59
2022/11/19 04:00:28;;;;;;;;;8.00;7.80;;;;;5.01;79.81;99151.38;5098950;28;8826;-57
2022/11/19 04:02:56;;;;;;;;;7.00;6.40;;;;;5.01;79.55;99158.47;5099189;28;8830;-57
2022/11/19 04:05:24;;;;;;;;;8.80;8.60;;;;;5.01;79.61;99161.09;5099177;28;8863;-58
2022/11/19 04:07:52;;;;;;;;;10.00;10.00;;;;;5.00;79.37;99160.25;5099017;28;8822;-59
2022/11/19 04:10:19;;;;;;;;;8.20;8.20;;;;;4.97;80.11;99168.38;5098992;28;8814;-56
2022/11/19 04:12:47;;;;;;;;;10.40;9.40;;;;;4.92;79.98;99169.63;5098853;28;8845;-58
2022/11/19 04:15:15;;;;;;;;;13.00;11.40;;;;;4.88;79.78;99181.34;5099222;28;8850;-59
2022/11/19 04:17:43;;;;;;;;;16.20;14.20;;;;;4.85;79.94;99179.78;5098901;28;8894;-59
2022/11/19 04:20:10;;;;;;;;;6.40;6.40;;;;;4.83;80.03;99176.41;5097966;28;8830;-59
2022/11/19 04:22:38;;;;;;;;;11.40;9.80;;;;;4.79;79.62;99174.09;5098580;28;8994;-59
2022/11/19 04:25:06;;;;;;;;;10.80;10.80;;;;;4.78;79.78;99178.50;5098975;28;8830;-59
2022/11/19 04:27:34;;;;;;;;;15.40;14.00;;;;;4.77;79.77;99182.09;5098455;28;8906;-59
2022/11/19 04:30:02;;;;;;;;;11.20;11.20;;;;;4.75;79.44;99183.13;5098871;28;8899;-59
2022/11/19 04:32:32;;;;;;;;;9.60;9.00;;;;;4.73;80.03;99190.31;5098727;28;8918;-59
2022/11/19 04:34:59;;;;;;;;;6.20;4.80;;;;;4.71;79.86;99186.94;5098825;28;8810;-59
2022/11/19 04:37:27;;;;;;;;;13.00;10.40;;;;;4.70;79.66;99191.38;5098386;28;8958;-58
2022/11/19 04:39:55;;;;;;;;;10.40;10.00;;;;;4.71;79.73;99210.69;5098400;28;8858;-56
2022/11/19 04:42:23;;;;;;;;;12.00;9.20;;;;;4.70;79.20;99198.41;5098231;28;8842;-58
2022/11/19 04:44:50;;;;;;;;;8.00;7.20;;;;;4.70;79.20;99198.41;5097990;28;8822;-58
2022/11/19 04:47:18;;;;;;;;;14.40;11.20;;;;;4.69;79.45;99204.63;5098396;28;8834;-58
2022/11/19 04:49:46;;;;;;;;;10.40;8.20;;;;;4.69;79.18;99208.13;5098105;28;8866;-58
2022/11/19 04:52:14;;;;;;;;;8.60;5.60;;;;;4.68;78.98;99209.09;5098109;28;8914;-58
2022/11/19 04:54:41;;;;;;;;;13.60;12.20;;;;;4.66;78.71;99215.41;5114843;28;8804;-58
2022/11/19 04:57:11;;;;;;;;;10.20;7.40;;;;;4.65;78.80;99219.00;5118621;28;8833;-59
2022/11/19 04:59:38;;;;;;;;;10.60;9.80;;;;;4.65;79.36;99219.00;5098296;28;8890;-58
2022/11/19 05:02:06;;;;;;;;;10.60;9.20;;;;;4.65;79.37;99213.72;5097957;28;8853;-57
2022/11/19 05:04:34;;;;;;;;;11.00;8.20;;;;;4.62;78.69;99208.63;5097883;28;8837;-58
2022/11/19 05:07:03;;;;;;;;;9.20;9.20;;;;;4.62;79.44;99219.19;5097774;28;8818;-59
2022/11/19 05:09:30;;;;;;;;;12.20;12.20;;;;;4.59;79.16;99214.13;5097711;28;8822;-58
2022/11/19 05:11:58;;;;;;;;;8.60;8.20;;;;;4.55;78.50;99218.75;5097697;28;8818;-59
2022/11/19 05:14:26;;;;;;;;;10.60;9.20;;;;;4.52;79.29;99218.13;5097533;28;8853;-59
2022/11/19 05:16:57;;;;;;;;;15.40;11.40;;;;;4.48;78.77;99224.56;5097764;28;8847;-59
2022/11/19 05:19:24;;;;;;;;;20.60;14.00;;;;;4.44;78.62;99228.31;5097331;28;8825;-59
2022/11/19 05:21:52;;;;;;;;;6.20;6.00;;;;;4.38;78.51;99232.22;5097163;28;8933;-58
2022/11/19 05:24:19;;;;;;;;;10.80;9.60;;;;;4.35;78.54;99232.41;5111313;28;8820;-59
2022/11/19 05:26:47;;;;;;;;;6.20;5.20;;;;;4.31;78.47;99230.94;5117914;28;8859;-59
2022/11/19 05:29:15;;;;;;;;;10.00;6.60;;;;;4.29;79.30;99237.25;5102187;28;8818;-59
2022/11/19 05:31:42;;;;;;;;;10.40;9.80;;;;;4.23;78.74;99232.38;5096392;28;8841;-59
2022/11/19 05:34:10;;;;;;;;;13.20;13.00;;;;;4.17;79.38;99244.16;5097282;28;8916;-58
2022/11/19 05:36:38;;;;;;;;;13.40;10.80;;;;;4.15;79.00;99245.19;5097468;28;8834;-58
2022/11/19 05:39:06;;;;;;;;;13.80;13.80;;;;;4.09;79.12;99246.44;5097201;28;8830;-58
2022/11/19 05:41:34;;;;;;;;;12.60;11.40;;;;;4.05;79.19;99246.75;5097107;28;8837;-59
2022/11/19 05:44:01;;;;;;;;;9.80;9.00;;;;;4.01;78.84;99243.47;5096778;28;8825;-59
2022/11/19 05:46:30;;;;;;;;;9.60;6.00;;;;;3.98;78.91;99254.19;5096791;28;8825;-58
2022/11/19 05:48:58;;;;;;;;;7.80;6.60;;;;;3.94;79.01;99254.47;5096333;28;8841;-59
2022/11/19 05:51:25;;;;;;;;;9.80;9.60;;;;;3.91;78.74;99262.59;5096850;28;8846;-58
2022/11/19 05:53:53;;;;;;;;;10.00;7.00;;;;;3.89;78.93;99262.66;5106993;28;8815;-59
2022/11/19 05:56:21;;;;;;;;;9.40;8.60;;;;;3.89;79.13;99269.75;5117566;28;8828;-59
2022/11/19 05:58:51;;;;;;;;;14.00;11.20;;;;;3.84;78.67;99266.53;5117308;28;8871;-59
2022/11/19 06:01:19;;;;;;;;;6.40;6.00;;;;;3.80;79.36;99284.31;5117337;28;9500;-59
2022/11/19 06:03:46;;;;;;;;;7.40;6.80;;;;;3.78;78.94;99290.63;5117420;28;8838;-57
2022/11/19 06:06:14;;;;;;;;;10.00;6.80;;;;;3.77;79.36;99288.94;5117220;28;8808;-59
2022/11/19 06:08:42;;;;;;;;;10.00;9.20;;;;;3.76;79.46;99287.25;5117676;28;8828;-59
2022/11/19 06:11:46;;;;;;;;;12.40;12.00;;;;;3.74;78.79;99287.34;5116808;28;8850;-59
2022/11/19 06:13:59;;;;;;;;;10.00;8.00;;;;;3.73;79.39;99295.34;5116936;28;9461;-58
2022/11/19 06:16:28;;;;;;;;;10.80;10.20;;;;;3.72;78.49;99292.81;5116332;28;8862;-58
2022/11/19 06:18:55;;;;;;;;;12.00;11.60;;;;;3.65;78.93;99297.63;5116067;28;9523;-57
2022/11/19 06:21:25;;;;;;;;;8.60;8.60;;;;;3.65;78.54;99300.25;5113061;28;8852;-57
2022/11/19 06:23:53;;;;;;;;;2.60;0.40;;;;;3.63;78.69;99298.66;5105778;28;8808;-58
2022/11/19 06:26:21;;;;;;;;;14.80;14.60;;;;;3.62;79.17;99303.06;5115672;28;8824;-57
2022/11/19 06:28:49;;;;;;;;;8.00;6.00;;;;;3.61;78.31;99311.88;5115946;28;8811;-56
2022/11/19 06:31:16;;;;;;;;;10.80;10.20;;;;;3.61;78.94;99306.63;5116008;28;8820;-57
2022/11/19 06:33:45;;;;;;;;;9.00;7.00;;;;;3.61;78.37;99306.63;5116403;28;8842;-58
2022/11/19 06:36:13;;;;;;;;;5.20;3.80;;;;;3.58;78.28;99312.09;5116082;28;8820;-59
2022/11/19 06:38:41;;;;;;;;;14.00;11.80;;;;;3.59;78.75;99315.56;5116617;28;8839;-58
2022/11/19 06:41:09;;;;;;;;;10.00;9.20;;;;;3.53;78.75;99311.50;5116921;28;8994;-59
2022/11/19 06:43:37;;;;;;;;;11.60;10.00;;;;;3.52;78.55;99315.09;5116016;28;8826;-58
2022/11/19 06:46:05;;;;;;;;;14.40;13.00;;;;;3.51;78.24;99326.56;5116418;28;8824;-58
2022/11/19 06:48:33;;;;;;;;;11.80;11.60;;;;;3.50;78.32;99322.25;5116529;28;8819;-59
2022/11/19 06:51:01;;;;;;;;;8.20;6.80;;;;;3.52;78.52;99323.00;5116308;28;9528;-58
2022/11/19 06:53:30;;;;;;;;;10.80;10.00;;;;;3.49;78.35;99320.53;5103162;28;9457;-58
2022/11/19 06:55:58;;;;;;;;;12.00;10.60;;;;;3.46;78.33;99327.75;5116223;28;8828;-58
2022/11/19 06:58:26;;;;;;;;;10.80;9.60;;;;;3.44;78.34;99334.91;5116332;28;8816;-57
2022/11/19 07:00:54;;;;;;;;;14.20;13.40;;;;;3.40;78.67;99336.88;5116236;28;8827;-58
2022/11/19 07:03:22;;;;;;;;;8.20;7.80;;;;;3.40;78.04;99338.69;5116147;28;8832;-58
2022/11/19 07:05:50;;;;;;;;;12.60;11.40;;;;;3.38;78.63;99341.41;5115916;28;8816;-57
2022/11/19 07:08:18;;;;;;;;;13.00;11.60;;;;;3.39;78.53;99345.72;5116033;28;8835;-59
2022/11/19 07:10:45;;;;;;;;;9.80;9.80;;;;;3.40;78.49;99347.41;5115676;28;8832;-58
2022/11/19 07:13:13;;;;;;;;;9.80;9.40;;;;;3.42;77.93;99345.50;5115520;28;8812;-57
2022/11/19 07:15:41;;;;;;;;;8.60;8.60;;;;;3.40;78.20;99352.66;5116151;28;8803;-56
2022/11/19 07:18:10;;;;;;;;;5.20;5.20;;;;;3.41;77.73;99353.53;5116343;28;8840;-58
2022/11/19 07:20:37;;;;;;;;;9.00;7.00;;;;;3.40;77.58;99355.28;5115796;28;8876;-56
2022/11/19 07:23:06;;;;;;;;;12.20;8.00;;;;;3.40;78.30;99355.28;5102264;28;8824;-58
2022/11/19 07:25:34;;;;;;;;;10.20;8.60;;;;;3.46;78.03;99365.47;5115252;28;8840;-59
2022/11/19 07:28:01;;;;;;;;;14.80;13.80;;;;;3.49;77.87;99354.72;5115288;28;8823;-58
2022/11/19 07:30:30;;;;;;;;;12.80;10.40;;;;;3.50;77.39;99361.72;5115178;28;8819;-58
2022/11/19 07:32:58;;;;;;;;;6.00;5.00;;;;;3.49;78.36;99364.44;5114441;28;8885;-58
2022/11/19 07:35:25;;;;;;;;;15.20;12.80;;;;;3.50;77.54;99361.72;5114475;28;8835;-57
2022/11/19 07:37:53;;;;;;;;;12.40;11.60;;;;;3.56;77.53;99363.13;5114625;28;8852;-59
2022/11/19 07:40:21;;;;;;;;;12.00;11.60;;;;;3.56;77.53;99360.50;5114555;28;8839;-59
2022/11/19 07:42:51;;;;;;;;;12.20;10.80;;;;;3.59;77.20;99369.06;5114402;28;8912;-59
2022/11/19 07:45:20;;;;;;;;;12.20;9.60;;;;;3.62;77.86;99370.66;5114183;28;8860;-59
2022/11/19 07:47:50;;;;;;;;;11.00;10.20;;;;;3.61;77.28;99377.69;5114157;28;8839;-59
2022/11/19 07:50:17;;;;;;;;;12.00;10.60;;;;;3.63;77.13;99375.81;5114347;28;8831;-57
2022/11/19 07:52:45;;;;;;;;;3.80;2.20;;;;;3.63;77.04;99378.44;5101282;28;8826;-59
2022/11/19 07:55:13;;;;;;;;;9.80;7.40;;;;;3.63;77.15;99381.06;5117692;28;8863;-59
2022/11/19 07:57:41;;;;;;;;;12.20;12.20;;;;;3.65;77.02;99396.78;5118925;28;8839;-58
2022/11/19 08:00:10;;;;;;;;;15.80;15.20;;;;;3.65;77.64;99386.25;5118697;28;8808;-59
2022/11/19 08:02:37;;;;;;;;;13.20;10.20;;;;;3.65;77.55;99387.09;5118562;28;8860;-58
2022/11/19 08:05:05;;;;;;;;;9.00;7.00;;;;;3.64;77.47;99388.03;5118496;28;8835;-56
2022/11/19 08:07:33;;;;;;;;;5.20;4.80;;;;;3.66;77.26;99391.44;5118911;28;8835;-59
2022/11/19 08:10:01;;;;;;;;;12.80;10.80;;;;;3.68;77.34;99397.44;5118484;28;8820;-57
2022/11/19 08:12:29;;;;;;;;;9.00;6.60;;;;;3.66;77.13;99395.84;5117589;28;8831;-58
2022/11/19 08:14:57;;;;;;;;;10.60;10.60;;;;;3.67;77.42;99397.53;5117642;28;8835;-58
2022/11/19 08:20:09;;;;;;;;;10.20;10.20;;;;;3.64;77.02;99398.56;5117861;28;8880;-58
2022/11/19 08:22:39;;;;;;;;;9.00;7.00;;;;;3.61;77.03;99404.00;5105923;28;8822;-59
2022/11/19 08:25:07;;;;;;;;;10.00;9.80;;;;;3.62;76.50;99408.34;5097910;28;8841;-58
2022/11/19 08:27:35;;;;;;;;;9.20;9.20;;;;;3.63;77.24;99407.38;5097158;28;8830;-57
2022/11/19 08:30:03;;;;;;;;;8.20;8.20;;;;;3.65;77.05;99408.16;5076868;28;8840;-58
2022/11/19 08:32:31;;;;;;;;;6.20;4.40;;;;;3.66;76.55;99417.75;5076919;28;8824;-56
2022/11/19 08:35:00;;;;;;;;;14.40;11.60;;;;;3.66;76.77;99414.25;5076798;28;8839;-58
2022/11/19 08:37:28;;;;;;;;;9.40;7.80;;;;;3.67;76.82;99418.56;5076995;28;8965;-56
2022/11/19 08:39:56;;;;;;;;;11.60;10.00;;;;;3.67;76.52;99416.81;5077089;28;8852;-58
2022/11/19 08:45:10;;;;;;;;;8.20;6.20;;;;;3.66;75.89;99415.13;5077182;28;9000;-57
2022/11/19 08:47:44;;;;;;;;;9.20;9.00;;;;;3.67;76.46;99422.91;5076987;28;8840;-59
2022/11/19 08:50:12;;;;;;;;;7.80;6.60;;;;;3.68;76.65;99421.13;5076663;28;8914;-57
2022/11/19 08:52:40;;;;;;;;;9.80;8.60;;;;;3.68;75.85;99426.41;5076180;28;8871;-58
2022/11/19 08:55:08;;;;;;;;;8.60;3.00;;;;;3.67;76.40;99425.53;5077001;28;8823;-58
2022/11/19 08:57:38;;;;;;;;;10.80;10.00;;;;;3.70;75.95;99437.66;5080080;28;9452;-59
2022/11/19 09:00:06;;;;;;;;;9.60;9.40;;;;;3.72;75.81;99431.38;5095937;28;8838;-58
2022/11/19 09:02:34;;;;;;;;;11.20;10.00;;;;;3.75;75.61;99430.34;5096355;28;8834;-59
2022/11/19 09:05:01;;;;;;;;;6.60;6.60;;;;;3.75;75.91;99440.88;5096353;28;9499;-59
2022/11/19 09:07:29;;;;;;;;;8.60;7.00;;;;;3.78;75.88;99450.41;5096841;28;8980;-57
2022/11/19 09:10:02;;;;;;;;;13.20;12.40;;;;;3.78;75.67;99453.84;5095898;28;8830;-58
2022/11/19 09:12:30;;;;;;;;;11.40;6.80;;;;;3.80;75.43;99454.63;5095399;28;8814;-59
2022/11/19 09:14:58;;;;;;;;;11.20;10.40;;;;;3.80;75.83;99454.63;5095187;28;8834;-58
2022/11/19 09:17:26;;;;;;;;;5.60;4.80;;;;;3.81;75.66;99465.03;5094764;28;8830;-56
2022/11/19 09:19:54;;;;;;;;;6.80;6.40;;;;;3.83;75.44;99457.94;5094942;28;8993;-59
2022/11/19 09:22:21;;;;;;;;;10.80;9.00;;;;;3.85;75.45;99457.81;5094880;28;8906;-59
2022/11/19 09:24:49;;;;;;;;;9.40;9.20;;;;;3.89;74.99;99464.59;5112137;28;8954;-57
2022/11/19 09:27:17;;;;;;;;;9.20;8.60;;;;;3.93;75.06;99456.41;5113569;28;8819;-59
2022/11/19 09:29:46;;;;;;;;;8.20;8.20;;;;;3.98;74.87;99464.03;5094194;28;8876;-59
2022/11/19 09:32:14;;;;;;;;;3.00;1.00;;;;;3.99;74.70;99463.97;5093998;28;8825;-59
2022/11/19 09:34:47;;;;;;;;;11.20;10.80;;;;;4.01;74.22;99469.97;5094570;28;8821;-59
2022/11/19 09:37:15;;;;;;;;;3.00;3.00;;;;;4.01;74.58;99469.09;5094910;28;9539;-58
2022/11/19 09:39:43;;;;;;;;;10.00;9.40;;;;;4.06;74.86;99469.69;5095203;28;8850;-57
2022/11/19 09:42:11;;;;;;;;;9.80;7.80;;;;;4.10;74.45;99469.41;5094294;28;8834;-59
2022/11/19 09:44:39;;;;;;;;;11.20;9.80;;;;;4.14;74.79;99481.47;5094407;28;8825;-58
2022/11/19 09:47:08;;;;;;;;;1.40;1.00;;;;;4.16;74.08;99474.31;5095166;28;8838;-58
2022/11/19 09:49:36;;;;;;;;;10.00;10.00;;;;;4.16;74.07;99478.72;5093920;28;8830;-58
2022/11/19 09:52:04;;;;;;;;;11.60;9.00;;;;;4.16;74.35;99489.25;5094949;28;9539;-58
2022/11/19 09:54:32;;;;;;;;;14.20;9.80;;;;;4.14;74.35;99491.13;5110719;28;8804;-59
2022/11/19 09:57:00;;;;;;;;;10.80;10.40;;;;;4.12;73.73;99488.59;5114591;28;8916;-59
2022/11/19 09:59:31;;;;;;;;;8.40;6.40;;;;;4.15;74.04;99492.81;5093077;28;9019;-59
2022/11/19 10:01:59;;;;;;;;;7.40;6.60;;;;;4.19;74.14;99495.19;5093077;28;8826;-59
2022/11/19 10:04:27;;;;;;;;;10.40;10.00;;;;;4.20;73.74;99494.22;5093104;28;8834;-58
2022/11/19 10:06:55;;;;;;;;;6.00;4.00;;;;;4.37;73.00;99498.47;5092995;28;8829;-58
2022/11/19 10:09:23;;;;;;;;;7.40;6.00;;;;;4.43;72.31;99503.38;5092582;28;9860;-58
2022/11/19 10:11:52;;;;;;;;;6.00;4.00;;;;;4.38;72.71;99505.44;5093098;28;8837;-58
2022/11/19 10:14:19;;;;;;;;;7.00;7.00;;;;;4.33;72.74;99499.63;5093218;28;8826;-56
2022/11/19 10:16:48;;;;;;;;;6.00;4.00;;;;;4.32;72.58;99500.53;5092805;28;8825;-59
2022/11/19 10:19:16;;;;;;;;;3.80;3.40;;;;;4.28;72.66;99499.88;5093330;28;8842;-56
2022/11/19 10:21:44;;;;;;;;;8.20;6.60;;;;;4.22;72.93;99504.69;5093289;28;8853;-57
2022/11/19 10:24:16;;;;;;;;;7.00;7.00;;;;;4.17;73.00;99506.75;5105667;28;8916;-59
2022/11/19 10:26:45;;;;;;;;;10.40;9.80;;;;;4.18;73.05;99508.47;5113438;28;8908;-59
2022/11/19 10:29:13;;;;;;;;;4.00;3.60;;;;;4.21;72.47;99508.28;5096024;28;8845;-58
2022/11/19 10:31:41;;;;;;;;;7.80;7.00;;;;;4.25;72.91;99507.16;5093047;28;8960;-59
2022/11/19 10:34:09;;;;;;;;;12.80;11.20;;;;;4.31;72.94;99515.53;5093950;28;8859;-58
2022/11/19 10:36:38;;;;;;;;;6.40;6.40;;;;;4.34;72.24;99509.22;5093985;28;8814;-58
2022/11/19 10:39:06;;;;;;;;;5.60;4.00;;;;;4.40;72.31;99511.50;5093362;28;8896;-58
2022/11/19 10:41:34;;;;;;;;;8.40;7.40;;;;;4.55;72.20;99518.41;5092673;28;8834;-58
2022/11/19 10:44:02;;;;;;;;;9.20;9.20;;;;;4.64;71.33;99502.06;5092387;28;8842;-57
2022/11/19 10:46:30;;;;;;;;;5.20;5.20;;;;;4.72;71.36;99505.88;5091987;28;8868;-58
2022/11/19 10:49:00;;;;;;;;;7.00;6.80;;;;;4.68;71.57;99498.25;5092120;28;9585;-58
2022/11/19 10:51:29;;;;;;;;;8.60;8.60;;;;;4.57;71.20;99495.47;5092019;28;8860;-58
2022/11/19 10:53:56;;;;;;;;;7.40;7.40;;;;;4.50;72.06;99512.59;5102353;28;8831;-57
2022/11/19 10:56:24;;;;;;;;;11.20;9.00;;;;;4.44;72.50;99500.66;5112195;28;8836;-58
2022/11/19 10:58:52;;;;;;;;;5.20;3.60;;;;;4.37;72.33;99503.75;5098679;28;8953;-59
2022/11/19 11:01:26;;;;;;;;;6.20;6.00;;;;;4.34;72.53;99503.94;5091408;28;8910;-57
2022/11/19 11:03:54;;;;;;;;;6.40;5.40;;;;;4.37;71.69;99509.88;5091254;28;8826;-58
2022/11/19 11:06:22;;;;;;;;;6.40;6.40;;;;;4.53;71.92;99505.34;5091264;28;8984;-59
2022/11/19 11:08:50;;;;;;;;;4.00;3.20;;;;;4.67;71.32;99493.94;5090951;28;8840;-56
2022/11/19 11:11:18;;;;;;;;;7.00;6.80;;;;;4.84;71.08;99504.25;5091807;28;8972;-56
2022/11/19 11:16:34;;;;;;;;;8.80;7.40;;;;;5.32;70.27;99490.56;5092575;28;8841;-58
2022/11/19 11:19:04;;;;;;;;;8.40;6.40;;;;;5.50;69.58;99498.13;5090821;28;8976;-58
2022/11/19 11:21:32;;;;;;;;;7.40;6.40;;;;;5.58;69.55;99497.59;5090279;28;10042;-57
2022/11/19 11:24:01;;;;;;;;;3.60;3.60;;;;;5.56;69.09;99495.03;5101807;28;8836;-56
2022/11/19 11:26:29;;;;;;;;;7.20;6.00;;;;;5.56;69.62;99497.69;5111859;28;8870;-59
2022/11/19 11:28:58;;;;;;;;;6.20;6.00;;;;;5.53;69.50;99497.06;5098599;28;8964;-56
2022/11/19 11:31:26;;;;;;;;;3.00;3.00;;;;;5.54;69.51;99506.69;5095122;28;8834;-57
2022/11/19 11:33:54;;;;;;;;;5.60;5.60;;;;;5.57;69.51;99501.19;5096028;28;8914;-59
2022/11/19 11:36:23;;;;;;;;;5.60;4.00;;;;;5.62;69.56;99499.91;5096679;28;8841;-59
2022/11/19 11:38:50;;;;;;;;;7.00;7.00;;;;;5.69;69.44;99490.66;5096467;28;8858;-59
2022/11/19 11:41:19;;;;;;;;;7.00;7.00;;;;;5.77;69.17;99492.78;5096224;28;8927;-59
2022/11/19 11:44:07;;;;;;;;;7.40;6.60;;;;;5.81;69.15;99504.84;5095126;28;8857;-58
2022/11/19 11:46:35;;;;;;;;;10.20;8.80;;;;;5.79;68.72;99490.88;5095564;28;8943;-59
2022/11/19 11:49:03;;;;;;;;;6.40;6.40;;;;;5.72;68.82;99494.88;5095671;28;9553;-57
2022/11/19 11:51:39;;;;;;;;;7.00;6.60;;;;;5.65;69.04;99498.88;5094126;28;8846;-58
2022/11/19 11:54:08;;;;;;;;;9.60;8.60;;;;;5.63;69.49;99495.50;5097611;28;8806;-58
2022/11/19 11:56:44;;;;;;;;;7.40;6.20;;;;;5.53;69.53;99495.25;5093912;28;9767;-59
2022/11/19 11:59:12;;;;;;;;;3.00;1.00;;;;;5.44;69.57;99492.38;5094489;28;8826;-57
2022/11/19 12:01:40;;;;;;;;;17.20;16.80;;;;;5.38;70.23;99490.16;5095421;28;8984;-58
2022/11/19 12:04:08;;;;;;;;;6.00;6.00;;;;;5.32;69.87;99483.47;5094846;28;8876;-59
2022/11/19 12:06:36;;;;;;;;;9.00;8.60;;;;;5.31;69.89;99488.88;5094957;28;8822;-57
2022/11/19 12:09:04;;;;;;;;;6.20;6.00;;;;;5.28;69.98;99483.78;5095261;28;8830;-59
2022/11/19 12:11:52;;;;;;;;;8.20;8.20;;;;;5.28;69.97;99491.69;5094463;28;8838;-56